Time;durP1;ratioP1;P1;durP2;ratioP2;P2;SDS_P1;SDS_P2;PMS_P1;PMS_P2;Temp;Humidity;BMP_temperature;BMP_pressure;BME280_temperature;BME280_humidity;BME280_pressure;Samples;Min_cycle;Max_cycle;Signal;HPM_P1;HPM_P2
2022/04/04 00:01:19;;;;;;;;;18.50;17.50;;;;;8.24;46.14;101506.69;5034856;28;45432;-65
2022/04/04 00:03:44;;;;;;;;;17.50;15.75;;;;;8.22;46.35;101506.72;5035102;28;45419;-64
2022/04/04 00:06:10;;;;;;;;;13.25;13.25;;;;;8.18;46.00;101500.63;5033653;28;45501;-64
2022/04/04 00:08:35;;;;;;;;;13.50;13.50;;;;;8.10;46.16;101504.22;5035231;28;45502;-65
2022/04/04 00:11:01;;;;;;;;;16.00;13.75;;;;;8.08;46.79;101511.22;5034808;28;46084;-64
2022/04/04 00:13:27;;;;;;;;;17.00;17.00;;;;;8.05;46.19;101512.09;5034748;28;45517;-64
2022/04/04 00:15:53;;;;;;;;;11.50;11.50;;;;;8.05;46.57;101511.25;5034920;28;45360;-64
2022/04/04 00:18:18;;;;;;;;;11.50;10.00;;;;;8.01;46.68;101510.41;5034846;28;45641;-65
2022/04/04 00:20:44;;;;;;;;;15.25;14.25;;;;;8.01;47.21;101517.41;5034650;28;46498;-65
2022/04/04 00:23:12;;;;;;;;;11.50;11.00;;;;;7.95;46.87;101508.72;5034759;28;45413;-67
2022/04/04 00:25:46;;;;;;;;;12.50;12.50;;;;;7.91;46.72;101504.38;5036900;28;45482;-64
2022/04/04 00:28:13;;;;;;;;;13.00;13.00;;;;;7.88;46.88;101506.19;5038321;28;45569;-64
2022/04/04 00:30:38;;;;;;;;;18.25;15.50;;;;;7.82;47.57;101506.22;5037926;28;45478;-64
2022/04/04 00:33:05;;;;;;;;;13.75;12.25;;;;;7.75;47.71;101501.03;5038132;28;45421;-64
2022/04/04 00:35:31;;;;;;;;;16.50;15.50;;;;;7.72;47.52;101493.22;5038198;28;45410;-63
2022/04/04 00:38:00;;;;;;;;;15.00;13.00;;;;;7.74;47.46;101494.09;5038125;28;45584;-64
2022/04/04 00:40:25;;;;;;;;;17.00;15.50;;;;;7.73;47.15;101483.59;5038073;28;46386;-64
2022/04/04 00:42:51;;;;;;;;;14.50;14.50;;;;;7.77;47.09;101492.31;5037892;28;45400;-64
2022/04/04 00:45:17;;;;;;;;;15.50;13.50;;;;;7.75;47.24;101493.19;5037989;28;45423;-64
2022/04/04 00:47:42;;;;;;;;;14.00;12.00;;;;;7.72;47.90;101494.97;5037882;28;45502;-63
2022/04/04 00:50:08;;;;;;;;;13.75;13.00;;;;;7.70;47.44;101488.88;5037608;28;46248;-64
2022/04/04 00:52:33;;;;;;;;;17.25;16.00;;;;;7.71;47.12;101493.22;5037803;28;45518;-65
2022/04/04 00:54:59;;;;;;;;;12.50;12.50;;;;;7.65;47.20;101490.66;5038080;28;45426;-64
2022/04/04 00:57:25;;;;;;;;;10.75;10.75;;;;;7.61;47.29;101484.59;5037889;28;45657;-64
2022/04/04 00:59:51;;;;;;;;;13.50;11.25;;;;;7.56;47.15;101475.06;5037502;28;46156;-64
2022/04/04 01:02:16;;;;;;;;;12.00;12.00;;;;;7.57;47.19;101480.25;5037821;28;45478;-64
2022/04/04 01:04:42;;;;;;;;;12.00;12.00;;;;;7.51;47.28;101475.09;5036588;28;45516;-64
2022/04/04 01:07:07;;;;;;;;;15.25;15.25;;;;;7.57;46.68;101485.50;5037643;28;45558;-64
2022/04/04 01:09:33;;;;;;;;;12.00;12.00;;;;;7.55;46.87;101482.06;5037636;28;46029;-65
2022/04/04 01:12:10;;;;;;;;;10.00;7.75;;;;;7.53;47.13;101481.19;5037505;28;45426;-65
2022/04/04 01:14:37;;;;;;;;;13.25;12.00;;;;;7.55;46.79;101484.66;5037893;28;45402;-64
2022/04/04 01:17:04;;;;;;;;;11.50;10.25;;;;;7.57;46.70;101484.63;5037617;28;45572;-64
2022/04/04 01:19:29;;;;;;;;;12.75;12.00;;;;;7.51;46.35;101468.09;5037196;28;46352;-64
2022/04/04 01:21:54;;;;;;;;;10.50;10.50;;;;;7.57;46.88;101480.25;5037367;28;45458;-64
2022/04/04 01:24:21;;;;;;;;;10.75;10.75;;;;;7.59;46.61;101480.25;5037675;28;45414;-64
2022/04/04 01:26:47;;;;;;;;;7.50;6.50;;;;;7.59;46.31;101477.66;5037572;28;45458;-64
2022/04/04 01:29:12;;;;;;;;;12.75;11.00;;;;;7.59;46.16;101473.28;5037152;28;45537;-64
2022/04/04 01:31:38;;;;;;;;;7.50;7.00;;;;;7.57;46.29;101467.19;5037310;28;45406;-64
2022/04/04 01:34:03;;;;;;;;;13.50;10.75;;;;;7.59;46.10;101465.41;5037815;28;45424;-64
2022/04/04 01:36:29;;;;;;;;;10.75;9.00;;;;;7.62;46.11;101468.00;5036857;28;45423;-64
2022/04/04 01:38:54;;;;;;;;;10.25;10.25;;;;;7.66;46.27;101467.09;5037308;28;45380;-67
2022/04/04 01:41:19;;;;;;;;;9.75;9.75;;;;;7.65;46.20;101461.88;5037097;28;45455;-65
2022/04/04 01:43:44;;;;;;;;;10.50;10.50;;;;;7.64;45.83;101458.41;5037409;28;45425;-65
2022/04/04 01:46:25;;;;;;;;;12.00;11.25;;;;;7.64;45.99;101462.75;5037181;28;45617;-65
2022/04/04 01:48:56;;;;;;;;;11.00;11.00;;;;;7.60;45.87;101451.44;5037239;28;45449;-65
2022/04/04 01:51:22;;;;;;;;;10.00;9.00;;;;;7.59;46.40;101459.31;5036879;28;45392;-65
2022/04/04 01:53:47;;;;;;;;;10.00;10.00;;;;;7.55;46.56;101450.63;5037207;28;45410;-65
2022/04/04 01:56:13;;;;;;;;;10.50;10.50;;;;;7.51;45.78;101448.91;5037065;28;45402;-65
2022/04/04 01:58:39;;;;;;;;;9.25;9.25;;;;;7.46;46.33;101441.09;5036786;28;46272;-65
2022/04/04 02:01:10;;;;;;;;;10.50;10.50;;;;;7.52;46.07;101454.16;5035473;28;45497;-65
2022/04/04 02:03:36;;;;;;;;;12.25;12.25;;;;;7.52;46.59;101446.28;5036775;28;45375;-65
2022/04/04 02:06:02;;;;;;;;;10.25;10.25;;;;;7.50;45.91;101450.66;5034788;28;45445;-66
2022/04/04 02:08:28;;;;;;;;;5.25;5.25;;;;;7.55;45.61;101449.75;5036824;28;45736;-64
2022/04/04 02:10:53;;;;;;;;;10.75;8.75;;;;;7.56;46.03;101441.88;5036287;28;45616;-65
2022/04/04 02:13:19;;;;;;;;;8.50;7.75;;;;;7.50;45.66;101437.59;5029551;28;45429;-64
2022/04/04 02:15:44;;;;;;;;;8.75;8.00;;;;;7.53;45.54;101440.16;5036762;28;45443;-64
2022/04/04 02:18:10;;;;;;;;;7.50;7.50;;;;;7.51;45.58;101441.06;5036382;28;45429;-66
2022/04/04 02:20:35;;;;;;;;;11.00;9.75;;;;;7.48;45.72;101428.00;5036403;28;45458;-63
2022/04/04 02:23:01;;;;;;;;;10.25;8.50;;;;;7.46;46.10;101422.78;5036553;28;45480;-65
2022/04/04 02:25:26;;;;;;;;;12.75;11.00;;;;;7.47;46.10;101434.13;5036496;28;45463;-63
2022/04/04 02:27:52;;;;;;;;;7.50;7.50;;;;;7.42;46.08;101423.69;5035011;28;46615;-64
2022/04/04 02:30:17;;;;;;;;;11.25;10.00;;;;;7.47;46.45;101431.53;5036335;28;45388;-65
2022/04/04 02:32:43;;;;;;;;;11.75;11.25;;;;;7.45;46.40;101425.41;5036606;28;45403;-64
2022/04/04 02:35:08;;;;;;;;;10.00;10.00;;;;;7.42;46.13;101431.56;5036530;28;45363;-64
2022/04/04 02:37:34;;;;;;;;;9.25;9.25;;;;;7.39;46.40;101425.47;5036257;28;46238;-64
2022/04/04 02:40:00;;;;;;;;;10.25;10.25;;;;;7.35;46.62;101421.16;5036177;28;45507;-64
2022/04/04 02:42:25;;;;;;;;;7.75;7.00;;;;;7.29;46.31;101422.94;5035260;28;45536;-65
2022/04/04 02:44:51;;;;;;;;;9.75;9.75;;;;;7.30;46.22;101421.19;5036147;28;45433;-64
2022/04/04 02:47:16;;;;;;;;;13.50;9.50;;;;;7.32;45.97;101421.19;5035058;28;45690;-63
2022/04/04 02:49:41;;;;;;;;;8.75;7.50;;;;;7.28;46.07;101418.59;5035835;28;45411;-64
2022/04/04 02:52:07;;;;;;;;;8.50;7.25;;;;;7.21;46.60;101402.97;5036235;28;45510;-65
2022/04/04 02:54:32;;;;;;;;;12.00;10.50;;;;;7.28;46.36;101418.59;5036113;28;45553;-64
2022/04/04 02:56:58;;;;;;;;;8.75;6.75;;;;;7.28;46.21;101417.69;5036070;28;46167;-64
2022/04/04 02:59:23;;;;;;;;;9.50;9.50;;;;;7.26;46.53;101416.88;5035888;28;45509;-65
2022/04/04 03:01:48;;;;;;;;;7.50;7.50;;;;;7.25;46.06;101416.00;5035811;28;45520;-66
2022/04/04 03:04:18;;;;;;;;;8.00;7.00;;;;;7.20;46.03;101409.03;5035851;28;45375;-64
2022/04/04 03:06:44;;;;;;;;;10.75;8.00;;;;;7.22;45.86;101415.16;5035661;28;45383;-65
2022/04/04 03:09:10;;;;;;;;;9.75;9.75;;;;;7.23;46.34;101409.91;5035758;28;45371;-65
2022/04/04 03:11:35;;;;;;;;;9.00;9.00;;;;;7.18;46.69;101408.22;5035815;28;45391;-64
2022/04/04 03:14:00;;;;;;;;;11.50;10.50;;;;;7.13;46.66;101402.16;5036267;28;45371;-64
2022/04/04 03:16:26;;;;;;;;;11.00;8.50;;;;;7.14;46.57;101406.50;5035504;28;48277;-64
2022/04/04 03:18:54;;;;;;;;;12.00;12.00;;;;;7.13;46.47;101408.25;5035677;28;45392;-63
2022/04/04 03:21:22;;;;;;;;;11.25;10.75;;;;;7.12;46.54;101400.41;5035636;28;45457;-65
2022/04/04 03:23:48;;;;;;;;;14.75;12.25;;;;;7.11;46.67;101398.69;5034120;28;45645;-65
2022/04/04 03:26:13;;;;;;;;;12.25;12.25;;;;;7.13;46.93;101396.91;5035399;28;45348;-64
2022/04/04 03:28:39;;;;;;;;;12.25;12.00;;;;;7.13;46.96;101394.31;5035338;28;45498;-64
2022/04/04 03:31:05;;;;;;;;;12.50;12.50;;;;;7.07;46.96;101387.38;5035374;28;45500;-64
2022/04/04 03:33:32;;;;;;;;;14.75;12.75;;;;;7.08;47.15;101392.56;5035484;28;45379;-65
2022/04/04 03:36:00;;;;;;;;;14.00;11.50;;;;;7.08;47.23;101395.19;5035182;28;45486;-65
2022/04/04 03:38:27;;;;;;;;;16.00;15.00;;;;;7.05;46.98;101384.75;5035053;28;45411;-64
2022/04/04 03:40:53;;;;;;;;;19.75;15.50;;;;;7.04;47.27;101383.03;5035382;28;45455;-64
2022/04/04 03:43:18;;;;;;;;;16.50;14.50;;;;;6.98;47.99;101383.06;5035279;28;45359;-64
2022/04/04 03:45:44;;;;;;;;;12.00;12.00;;;;;7.00;47.55;101380.44;5035052;28;45655;-65
2022/04/04 03:48:10;;;;;;;;;12.75;12.50;;;;;6.99;47.34;101376.13;5034978;28;45342;-65
2022/04/04 03:50:35;;;;;;;;;12.00;12.00;;;;;6.97;47.22;101370.03;5035069;28;45388;-65
2022/04/04 03:53:01;;;;;;;;;14.00;14.00;;;;;6.95;47.24;101370.03;5035087;28;45428;-64
2022/04/04 03:55:31;;;;;;;;;14.25;13.00;;;;;6.95;47.09;101364.78;5034787;28;46228;-64
2022/04/04 03:57:57;;;;;;;;;11.75;11.25;;;;;6.99;46.90;101368.28;5034895;28;45510;-64
2022/04/04 04:00:23;;;;;;;;;10.50;10.50;;;;;7.00;46.82;101364.75;5034681;28;45426;-64
2022/04/04 04:02:50;;;;;;;;;12.75;12.00;;;;;6.96;46.97;101365.66;5035011;28;45620;-64
2022/04/04 04:05:15;;;;;;;;;10.25;7.75;;;;;6.94;46.44;101364.81;5034706;28;45512;-65
2022/04/04 04:07:42;;;;;;;;;15.00;13.25;;;;;6.81;46.86;101337.91;5034736;28;45457;-64
2022/04/04 04:10:11;;;;;;;;;13.25;13.25;;;;;6.95;46.77;101369.16;5034955;28;45445;-64
2022/04/04 04:12:37;;;;;;;;;9.00;9.00;;;;;6.95;46.78;101363.94;5033447;28;45548;-64
2022/04/04 04:15:03;;;;;;;;;15.00;14.00;;;;;6.91;47.04;101357.00;5034858;28;45464;-64
2022/04/04 04:17:30;;;;;;;;;15.00;15.00;;;;;6.88;46.60;101357.00;5034755;28;45399;-64
2022/04/04 04:22:39;;;;;;;;;13.75;13.75;;;;;6.93;47.41;101353.50;5034803;28;45489;-65
2022/04/04 04:25:06;;;;;;;;;12.75;11.50;;;;;6.93;46.77;101348.28;5034511;28;45398;-65
2022/04/04 04:27:31;;;;;;;;;14.75;14.50;;;;;6.94;46.96;101344.75;5034687;28;45385;-64
2022/04/04 04:29:56;;;;;;;;;19.00;16.00;;;;;6.88;46.89;101339.59;5034625;28;45385;-64
2022/04/04 04:32:22;;;;;;;;;15.25;15.25;;;;;6.89;47.35;101346.53;5034733;28;45598;-64
2022/04/04 04:34:50;;;;;;;;;11.25;10.00;;;;;6.85;47.27;101339.59;5034382;28;45521;-65
2022/04/04 04:37:21;;;;;;;;;15.75;14.50;;;;;6.81;47.35;101335.28;5034725;28;45589;-64
2022/04/04 04:39:47;;;;;;;;;16.50;13.75;;;;;6.83;46.72;101341.38;5034850;28;45371;-64
2022/04/04 04:42:12;;;;;;;;;10.50;10.50;;;;;6.82;47.12;101334.38;5034778;28;45392;-64
2022/04/04 04:44:38;;;;;;;;;14.75;13.50;;;;;6.80;47.32;101328.34;5034508;28;46027;-64
2022/04/04 04:47:05;;;;;;;;;12.75;12.75;;;;;6.82;47.18;101322.22;5034575;28;45517;-64
2022/04/04 04:49:31;;;;;;;;;15.75;15.00;;;;;6.77;46.41;101317.88;5034593;28;45742;-64
2022/04/04 04:51:57;;;;;;;;;12.50;11.25;;;;;6.80;46.87;101323.97;5034301;28;45583;-64
2022/04/04 04:54:23;;;;;;;;;13.75;12.25;;;;;6.80;47.21;101321.34;5034250;28;45453;-65
2022/04/04 04:56:48;;;;;;;;;14.75;13.50;;;;;6.79;47.13;101327.44;5034147;28;45463;-64
2022/04/04 04:59:13;;;;;;;;;12.25;12.25;;;;;6.78;47.11;101324.84;5034377;28;45410;-65
2022/04/04 05:01:40;;;;;;;;;14.50;13.25;;;;;6.78;47.00;101332.69;5034108;28;45360;-64
2022/04/04 05:04:05;;;;;;;;;13.00;13.00;;;;;6.72;46.80;101317.94;5032898;28;46299;-63
2022/04/04 05:06:31;;;;;;;;;15.00;13.00;;;;;6.73;46.95;101324.88;5033975;28;45365;-66
2022/04/04 05:08:59;;;;;;;;;14.25;13.75;;;;;6.68;46.99;101326.66;5034439;28;45316;-64
2022/04/04 05:11:25;;;;;;;;;11.75;10.50;;;;;6.67;47.10;101324.06;5035592;28;45760;-64
2022/04/04 05:13:50;;;;;;;;;11.25;11.25;;;;;6.56;47.07;101316.31;5037357;28;45623;-65
2022/04/04 05:16:16;;;;;;;;;15.25;15.25;;;;;6.60;47.46;101334.56;5037455;28;45387;-65
2022/04/04 05:18:43;;;;;;;;;15.00;14.00;;;;;6.59;47.24;101331.97;5037715;28;45509;-65
2022/04/04 05:21:09;;;;;;;;;10.00;10.00;;;;;6.54;47.30;101323.28;5037554;28;45644;-64
2022/04/04 05:23:35;;;;;;;;;11.25;11.25;;;;;6.51;47.58;101321.56;5037309;28;45716;-64
2022/04/04 05:26:00;;;;;;;;;15.00;14.00;;;;;6.53;47.45;101318.91;5037178;28;45396;-64
2022/04/04 05:28:25;;;;;;;;;15.50;14.00;;;;;6.53;47.49;101322.44;5037120;28;45390;-65
2022/04/04 05:30:51;;;;;;;;;13.00;12.25;;;;;6.53;47.34;101325.03;5037165;28;45546;-64
2022/04/04 05:33:16;;;;;;;;;10.50;10.25;;;;;6.54;47.53;101324.16;5036991;28;45408;-65
2022/04/04 05:35:42;;;;;;;;;12.50;12.50;;;;;6.48;47.44;101323.34;5037186;28;45474;-64
2022/04/04 05:38:07;;;;;;;;;15.75;15.75;;;;;6.48;47.57;101328.56;5037092;28;45448;-63
2022/04/04 05:40:32;;;;;;;;;13.75;13.75;;;;;6.48;47.72;101326.81;5037195;28;45353;-63
2022/04/04 05:43:00;;;;;;;;;14.75;13.50;;;;;6.43;47.61;101315.53;5037113;28;45458;-65
2022/04/04 05:45:25;;;;;;;;;13.00;13.00;;;;;6.50;47.67;101326.78;5037130;28;45398;-64
2022/04/04 05:47:51;;;;;;;;;11.50;10.75;;;;;6.50;47.61;101318.94;5037118;28;45516;-65
2022/04/04 05:50:17;;;;;;;;;12.50;11.50;;;;;6.49;47.70;101322.44;5037278;28;45641;-65
2022/04/04 05:52:42;;;;;;;;;17.50;14.50;;;;;6.48;47.75;101324.19;5036855;28;45967;-65
2022/04/04 05:55:08;;;;;;;;;12.25;11.50;;;;;6.47;47.72;101321.59;5036954;28;45417;-65
2022/04/04 05:57:35;;;;;;;;;14.00;11.00;;;;;6.47;47.60;101322.44;5036851;28;45402;-64
2022/04/04 06:00:02;;;;;;;;;10.50;10.50;;;;;6.48;47.50;101328.56;5036611;28;45373;-65
2022/04/04 06:02:27;;;;;;;;;17.00;16.00;;;;;6.47;47.66;101319.84;5036684;28;46343;-64
2022/04/04 06:04:53;;;;;;;;;11.75;11.75;;;;;6.48;47.55;101324.19;5036672;28;45382;-64
2022/04/04 06:07:19;;;;;;;;;16.50;14.25;;;;;6.45;47.47;101316.38;5036305;28;45454;-65
2022/04/04 06:09:45;;;;;;;;;22.50;14.75;;;;;6.50;47.49;101311.09;5036575;28;45527;-64
2022/04/04 06:12:11;;;;;;;;;7.25;6.25;;;;;6.50;47.54;101312.00;5036046;28;45994;-64
2022/04/04 06:14:36;;;;;;;;;7.25;7.25;;;;;6.50;47.20;101312.00;5035144;28;45549;-64
2022/04/04 06:17:06;;;;;;;;;15.00;15.00;;;;;6.56;47.44;101319.78;5036493;28;45562;-63
2022/04/04 06:19:33;;;;;;;;;15.25;14.50;;;;;6.48;47.44;101297.22;5035117;28;45532;-64
2022/04/04 06:21:58;;;;;;;;;18.75;18.75;;;;;6.59;48.24;101311.06;5036163;28;46243;-64
2022/04/04 06:24:24;;;;;;;;;16.50;16.00;;;;;6.61;47.84;101306.69;5036247;28;45474;-65
2022/04/04 06:26:49;;;;;;;;;19.00;15.50;;;;;6.66;48.04;101304.88;5036455;28;45441;-64
2022/04/04 06:29:14;;;;;;;;;16.75;14.25;;;;;6.73;47.89;101314.44;5036243;28;45391;-64
2022/04/04 06:31:40;;;;;;;;;16.00;15.25;;;;;6.79;47.71;101316.13;5036192;28;46008;-65
2022/04/04 06:34:08;;;;;;;;;17.75;16.50;;;;;6.83;47.36;101310.00;5036181;28;46035;-64
2022/04/04 06:36:34;;;;;;;;;21.25;21.25;;;;;6.88;47.69;101308.22;5036414;28;45427;-64
2022/04/04 06:38:59;;;;;;;;;24.25;24.25;;;;;6.90;47.43;101303.81;5036182;28;45401;-65
2022/04/04 06:41:25;;;;;;;;;23.00;23.00;;;;;6.95;47.59;101303.78;5036053;28;45483;-65
2022/04/04 06:43:51;;;;;;;;;24.00;23.50;;;;;6.96;47.83;101297.66;5035873;28;45321;-65
2022/04/04 06:46:17;;;;;;;;;21.00;20.50;;;;;6.98;47.47;101296.75;5036044;28;45439;-65
2022/04/04 06:48:45;;;;;;;;;20.00;16.75;;;;;7.05;47.20;101302.81;5036030;28;45356;-65
2022/04/04 06:51:11;;;;;;;;;20.25;18.00;;;;;7.04;46.95;101295.88;5035578;28;45452;-65
2022/04/04 06:53:37;;;;;;;;;20.25;20.25;;;;;7.11;46.74;101301.91;5035894;28;45493;-64
2022/04/04 06:56:03;;;;;;;;;19.25;19.25;;;;;7.12;46.67;101296.66;5035903;28;45485;-64
2022/04/04 06:58:28;;;;;;;;;22.75;22.75;;;;;7.09;46.58;101299.28;5035829;28;45631;-65
2022/04/04 07:00:54;;;;;;;;;23.50;21.50;;;;;7.10;46.30;101292.31;5035641;28;47137;-64
2022/04/04 07:03:19;;;;;;;;;15.75;15.75;;;;;7.16;46.42;101297.50;5035824;28;45509;-64
2022/04/04 07:05:44;;;;;;;;;16.75;15.00;;;;;7.20;45.36;101292.22;5035709;28;45831;-64
2022/04/04 07:08:10;;;;;;;;;8.25;8.25;;;;;7.21;44.83;101288.72;5035531;28;45333;-64
2022/04/04 07:10:36;;;;;;;;;9.75;8.00;;;;;7.23;44.06;101284.34;5035225;28;45412;-64
2022/04/04 07:13:02;;;;;;;;;8.50;7.00;;;;;7.22;42.85;101277.34;5035736;28;45432;-65
2022/04/04 07:15:28;;;;;;;;;10.25;9.00;;;;;7.25;42.81;101284.28;5035671;28;45474;-65
2022/04/04 07:17:53;;;;;;;;;6.75;6.00;;;;;7.20;41.97;101276.53;5035562;28;45506;-64
2022/04/04 07:20:19;;;;;;;;;6.50;4.75;;;;;7.24;42.11;101270.34;5035328;28;49580;-65
2022/04/04 07:22:44;;;;;;;;;8.00;5.25;;;;;7.29;42.09;101276.41;5035266;28;45456;-64
2022/04/04 07:25:11;;;;;;;;;5.00;5.00;;;;;7.29;41.48;101273.78;5035417;28;45414;-64
2022/04/04 07:27:41;;;;;;;;;2.75;2.75;;;;;7.28;41.68;101272.06;5035629;28;45399;-66
2022/04/04 07:30:12;;;;;;;;;3.00;3.00;;;;;7.29;41.32;101276.41;5035309;28;46165;-64
2022/04/04 07:32:38;;;;;;;;;6.00;6.00;;;;;7.30;41.68;101262.44;5035116;28;45723;-65
2022/04/04 07:35:04;;;;;;;;;5.00;5.00;;;;;7.34;41.80;101262.44;5034897;28;45601;-65
2022/04/04 07:37:30;;;;;;;;;6.75;5.50;;;;;7.27;41.61;101257.25;5035263;28;45371;-65
2022/04/04 07:39:56;;;;;;;;;6.75;5.00;;;;;7.32;42.10;101256.34;5034825;28;46363;-65
2022/04/04 07:42:21;;;;;;;;;7.00;5.75;;;;;7.34;42.25;101258.06;5035180;28;45415;-65
2022/04/04 07:44:47;;;;;;;;;9.00;6.75;;;;;7.38;41.77;101248.41;5035344;28;45364;-64
2022/04/04 07:47:12;;;;;;;;;7.50;7.25;;;;;7.45;42.40;101250.06;5035365;28;45384;-66
2022/04/04 07:49:37;;;;;;;;;3.00;3.00;;;;;7.48;41.79;101252.66;5034852;28;45387;-64
2022/04/04 07:52:03;;;;;;;;;5.00;5.00;;;;;7.49;41.62;101247.38;5035116;28;45328;-64
2022/04/04 07:54:29;;;;;;;;;5.50;2.50;;;;;7.50;41.73;101245.66;5035072;28;45387;-64
2022/04/04 07:56:56;;;;;;;;;5.75;5.75;;;;;7.53;41.92;101249.09;5035072;28;45450;-64
2022/04/04 07:59:22;;;;;;;;;4.50;4.50;;;;;7.51;41.06;101245.63;5034695;28;46044;-64
2022/04/04 08:01:47;;;;;;;;;6.00;6.00;;;;;7.51;40.94;101231.66;5034888;28;45485;-65
2022/04/04 08:04:12;;;;;;;;;6.50;6.50;;;;;7.62;41.53;101239.38;5035049;28;45306;-65
2022/04/04 08:06:38;;;;;;;;;7.00;5.25;;;;;7.61;41.00;101233.28;5033627;28;45629;-65
2022/04/04 08:09:03;;;;;;;;;3.75;3.75;;;;;7.66;41.44;101225.38;5034942;28;46245;-65
2022/04/04 08:11:29;;;;;;;;;7.75;6.00;;;;;7.66;41.45;101241.97;5034665;28;45347;-64
2022/04/04 08:13:54;;;;;;;;;7.00;7.00;;;;;7.59;41.80;101229.81;5035039;28;45364;-66
2022/04/04 08:16:22;;;;;;;;;2.75;2.75;;;;;7.63;41.89;101228.91;5035148;28;45573;-65
2022/04/04 08:18:47;;;;;;;;;7.50;7.50;;;;;7.66;41.89;101231.47;5033290;28;45403;-66
2022/04/04 08:21:15;;;;;;;;;6.25;5.00;;;;;7.68;41.77;101234.94;5034658;28;45380;-64
2022/04/04 08:23:41;;;;;;;;;7.00;7.00;;;;;7.72;41.96;101226.16;5034815;28;45469;-65
2022/04/04 08:26:07;;;;;;;;;5.25;5.25;;;;;7.75;41.84;101225.25;5034509;28;45657;-65
2022/04/04 08:28:32;;;;;;;;;9.25;9.25;;;;;7.78;42.02;101224.34;5034703;28;46815;-65
2022/04/04 08:30:58;;;;;;;;;11.00;10.25;;;;;7.82;41.69;101221.66;5034325;28;45470;-64
2022/04/04 08:33:24;;;;;;;;;7.00;7.00;;;;;7.81;41.81;101200.72;5033562;28;45446;-64
2022/04/04 08:35:52;;;;;;;;;6.75;6.75;;;;;7.91;41.14;101218.06;5034589;28;45639;-65
2022/04/04 08:38:18;;;;;;;;;6.25;6.25;;;;;7.90;40.87;101209.34;5034458;28;45421;-64
2022/04/04 08:40:45;;;;;;;;;5.75;5.75;;;;;7.94;40.98;101199.66;5034524;28;45541;-65
2022/04/04 08:43:11;;;;;;;;;7.00;7.00;;;;;7.90;41.11;101182.28;5034285;28;45521;-65
2022/04/04 08:45:42;;;;;;;;;7.00;7.00;;;;;7.95;40.77;101196.16;5034934;28;45455;-65
2022/04/04 08:48:09;;;;;;;;;10.50;10.50;;;;;7.98;41.80;101201.38;5036172;28;47402;-65
2022/04/04 08:50:36;;;;;;;;;1.75;1.50;;;;;7.99;40.92;101197.00;5037357;28;45542;-64
2022/04/04 08:53:02;;;;;;;;;5.00;3.00;;;;;8.01;41.04;101200.47;5037769;28;45505;-63
2022/04/04 08:55:28;;;;;;;;;7.75;7.25;;;;;8.01;40.84;101185.59;5037556;28;45505;-65
2022/04/04 08:57:56;;;;;;;;;7.00;3.00;;;;;8.10;40.92;101192.44;5035934;28;45511;-65
2022/04/04 09:00:21;;;;;;;;;6.00;3.75;;;;;8.14;40.96;101188.88;5037546;28;45526;-65
2022/04/04 09:02:56;;;;;;;;;5.50;5.50;;;;;8.19;39.82;101184.44;5037457;28;45522;-65
2022/04/04 09:05:22;;;;;;;;;3.50;3.50;;;;;8.22;39.46;101186.13;5037373;28;45475;-64
2022/04/04 09:08:01;;;;;;;;;4.00;4.00;;;;;8.16;38.41;101176.63;5037261;28;45989;-65
2022/04/04 09:10:35;;;;;;;;;4.25;4.25;;;;;8.19;39.00;101185.31;5037368;28;45485;-65
2022/04/04 09:13:19;;;;;;;;;2.00;2.00;;;;;8.23;39.15;101185.25;5036365;28;45558;-66
2022/04/04 09:16:05;;;;;;;;;2.00;2.00;;;;;8.20;38.26;101180.94;5037505;28;45540;-64
2022/04/04 09:18:40;;;;;;;;;5.00;5.00;;;;;8.19;38.64;101172.22;5037126;28;45554;-65
2022/04/04 09:21:08;;;;;;;;;2.00;2.00;;;;;8.26;38.67;101169.50;5037216;28;45550;-65
2022/04/04 09:23:46;;;;;;;;;3.00;1.25;;;;;8.18;38.81;101143.41;5037169;28;45471;-65
2022/04/04 09:26:32;;;;;;;;;3.00;3.00;;;;;8.40;38.24;101165.75;5037273;28;45429;-64
2022/04/04 09:29:00;;;;;;;;;3.00;3.00;;;;;8.42;37.54;101164.88;5036759;28;46026;-64
2022/04/04 09:31:26;;;;;;;;;3.50;3.50;;;;;8.51;37.30;101157.69;5036841;28;45438;-65
2022/04/04 09:33:51;;;;;;;;;3.50;3.50;;;;;8.68;37.71;101151.28;5037116;28;45371;-64
2022/04/04 09:36:17;;;;;;;;;2.75;2.75;;;;;8.88;37.22;101150.94;5037117;28;45534;-65
2022/04/04 09:38:54;;;;;;;;;3.25;3.25;;;;;8.96;36.96;101139.38;5036886;28;45509;-65
2022/04/04 09:41:21;;;;;;;;;3.00;2.00;;;;;9.01;37.58;101142.78;5036838;28;45400;-65
2022/04/04 09:43:51;;;;;;;;;3.00;3.00;;;;;9.04;37.01;101141.84;5037088;28;45552;-66
2022/04/04 09:46:17;;;;;;;;;3.50;2.75;;;;;9.04;36.84;101145.34;5036897;28;45544;-65
2022/04/04 09:49:02;;;;;;;;;3.25;3.25;;;;;9.00;36.01;101137.56;5036721;28;45614;-65
2022/04/04 09:51:41;;;;;;;;;3.25;3.25;;;;;8.97;36.63;101128.00;5036807;28;45453;-64
2022/04/04 09:54:13;;;;;;;;;4.00;4.00;;;;;8.99;36.62;101133.22;5036835;28;45413;-64
2022/04/04 09:56:39;;;;;;;;;3.50;3.50;;;;;9.02;36.36;101130.53;5036210;28;45379;-65
2022/04/04 09:59:04;;;;;;;;;2.75;2.75;;;;;8.99;35.97;101123.56;5036505;28;46053;-64
2022/04/04 10:01:31;;;;;;;;;3.75;3.75;;;;;8.97;36.08;101114.00;5036648;28;45386;-65
2022/04/04 10:03:57;;;;;;;;;2.25;2.00;;;;;8.98;35.85;101107.88;5036947;28;45367;-65
2022/04/04 10:06:27;;;;;;;;;2.00;2.00;;;;;9.03;34.64;101108.66;5036572;28;45396;-65
2022/04/04 10:08:57;;;;;;;;;2.50;2.50;;;;;9.02;35.47;101110.38;5036585;28;45546;-65
2022/04/04 10:11:23;;;;;;;;;2.00;2.00;;;;;9.05;35.32;101123.47;5036305;28;45331;-66
2022/04/04 10:13:52;;;;;;;;;3.50;3.50;;;;;9.09;35.70;101112.91;5036526;28;45468;-65
2022/04/04 10:16:18;;;;;;;;;4.50;4.50;;;;;9.16;35.48;101109.22;5036623;28;45471;-64
2022/04/04 10:18:44;;;;;;;;;2.00;2.00;;;;;9.33;35.19;101101.88;5036268;28;46820;-65
2022/04/04 10:21:12;;;;;;;;;6.00;6.00;;;;;9.62;35.14;101101.22;5036393;28;45359;-65
2022/04/04 10:23:40;;;;;;;;;3.25;3.25;;;;;9.90;35.17;101097.94;5036552;28;45398;-65
2022/04/04 10:26:07;;;;;;;;;3.00;3.00;;;;;10.06;34.60;101104.53;5036525;28;45654;-65
2022/04/04 10:28:38;;;;;;;;;2.00;2.00;;;;;10.08;34.36;101094.84;5036211;28;45545;-64
2022/04/04 10:31:20;;;;;;;;;1.00;1.00;;;;;10.03;34.04;101093.25;5036494;28;45480;-64
2022/04/04 10:33:48;;;;;;;;;4.00;4.00;;;;;9.95;32.88;101080.28;5036108;28;45387;-66
2022/04/04 10:36:20;;;;;;;;;3.75;3.75;;;;;9.88;32.78;101082.19;5035867;28;45629;-64
2022/04/04 10:38:51;;;;;;;;;2.00;2.00;;;;;9.84;32.37;101074.44;5035542;28;45383;-66
2022/04/04 10:41:18;;;;;;;;;2.00;2.00;;;;;9.83;32.12;101056.94;5035999;28;45502;-65
2022/04/04 10:43:49;;;;;;;;;2.50;2.50;;;;;9.86;32.84;101062.09;5036069;28;45443;-65
2022/04/04 10:46:17;;;;;;;;;2.00;2.00;;;;;9.84;31.67;101049.03;5036035;28;45669;-65
2022/04/04 10:48:52;;;;;;;;;3.00;3.00;;;;;9.88;32.52;101049.81;5035476;28;46149;-64
2022/04/04 10:51:19;;;;;;;;;4.00;2.75;;;;;9.94;32.37;101061.03;5035468;28;45552;-65
2022/04/04 10:53:47;;;;;;;;;5.00;3.00;;;;;10.00;33.47;101048.66;5035722;28;45459;-65
2022/04/04 10:56:18;;;;;;;;;3.00;3.00;;;;;10.04;33.18;101055.53;5035308;28;45637;-64
2022/04/04 10:58:43;;;;;;;;;3.00;3.00;;;;;10.08;32.16;101046.69;5035247;28;45438;-65
2022/04/04 11:01:16;;;;;;;;;2.50;2.50;;;;;10.10;32.43;101036.97;5035441;28;45364;-66
2022/04/04 11:04:02;;;;;;;;;3.50;3.50;;;;;10.15;33.13;101027.19;5035896;28;45557;-65
2022/04/04 11:09:32;;;;;;;;;2.75;2.75;;;;;10.20;32.06;101046.34;5034565;28;45546;-65
2022/04/04 11:12:00;;;;;;;;;5.50;5.50;;;;;10.20;31.24;101032.34;5035247;28;45559;-65
2022/04/04 11:14:28;;;;;;;;;2.75;2.75;;;;;10.17;32.09;101025.41;5035200;28;45379;-65
2022/04/04 11:17:06;;;;;;;;;3.75;3.75;;;;;10.17;32.18;101022.78;5035461;28;45366;-65
2022/04/04 11:19:48;;;;;;;;;3.00;3.00;;;;;10.20;32.20;101011.31;5035324;28;45574;-65
2022/04/04 11:22:27;;;;;;;;;5.50;4.50;;;;;10.26;32.43;101005.88;5035241;28;45332;-65
2022/04/04 11:25:03;;;;;;;;;3.00;3.00;;;;;10.33;32.28;101003.06;5035527;28;45442;-65
2022/04/04 11:27:29;;;;;;;;;2.75;2.75;;;;;10.37;32.46;100998.63;5035156;28;45507;-65
2022/04/04 11:29:54;;;;;;;;;5.00;5.00;;;;;10.36;31.15;100992.47;5035115;28;46012;-65